Time;durP1;ratioP1;P1;durP2;ratioP2;P2;SDS_P1;SDS_P2;PMS_P1;PMS_P2;Temp;Humidity;BMP_temperature;BMP_pressure;BME280_temperature;BME280_humidity;BME280_pressure;Samples;Min_cycle;Max_cycle;Signal;HPM_P1;HPM_P2
2021/05/24 00:01:26;;;;;;;0.93;0.70;;;14.20;88.50;;;;;;5105303;28;20121;-41
2021/05/24 00:03:52;;;;;;;1.75;0.88;;;14.20;88.50;;;;;;5105594;28;20030;-40
2021/05/24 00:06:17;;;;;;;2.22;1.00;;;14.20;88.60;;;;;;5105913;28;20074;-40
2021/05/24 00:08:43;;;;;;;2.20;0.82;;;14.10;88.40;;;;;;5105258;28;20055;-41
2021/05/24 00:11:08;;;;;;;3.80;1.13;;;14.20;88.40;;;;;;5106134;28;20042;-41
2021/05/24 00:13:43;;;;;;;1.92;1.10;;;14.20;88.40;;;;;;5106220;28;20095;-39
2021/05/24 00:16:09;;;;;;;2.90;1.00;;;14.20;88.30;;;;;;5106004;28;20035;-41
2021/05/24 00:18:34;;;;;;;3.25;0.80;;;14.20;88.10;;;;;;5105737;28;20355;-38
2021/05/24 00:21:00;;;;;;;2.08;0.90;;;14.20;88.10;;;;;;5105812;28;20030;-40
2021/05/24 00:23:26;;;;;;;3.05;1.00;;;14.20;87.90;;;;;;5105838;28;20443;-38
2021/05/24 00:25:56;;;;;;;2.17;0.90;;;14.20;88.10;;;;;;5108336;28;20035;-38
2021/05/24 00:28:30;;;;;;;1.73;0.80;;;14.20;87.50;;;;;;5109963;28;20425;-39
2021/05/24 00:30:56;;;;;;;2.00;0.90;;;14.30;87.30;;;;;;5109219;28;20030;-39
2021/05/24 00:33:21;;;;;;;2.85;1.20;;;14.30;87.20;;;;;;5110061;28;20117;-39
2021/05/24 00:35:47;;;;;;;2.45;0.90;;;14.30;87.20;;;;;;5108705;27;20516;-40
2021/05/24 00:38:13;;;;;;;2.40;0.82;;;14.40;87.10;;;;;;5110157;28;20019;-42
2021/05/24 00:40:39;;;;;;;1.98;0.80;;;14.40;87.60;;;;;;5109340;28;20479;-41
2021/05/24 00:43:06;;;;;;;1.67;0.63;;;14.40;87.10;;;;;;5108252;28;20110;-41
2021/05/24 00:45:33;;;;;;;1.77;0.60;;;14.40;87.20;;;;;;5109466;28;20131;-40
2021/05/24 00:48:02;;;;;;;3.75;1.00;;;14.40;87.30;;;;;;5109089;28;20053;-40
2021/05/24 00:50:28;;;;;;;4.82;1.63;;;14.40;87.30;;;;;;5109121;28;20458;-40
2021/05/24 00:52:53;;;;;;;4.10;0.90;;;14.40;87.20;;;;;;5108746;28;20019;-40
2021/05/24 00:55:19;;;;;;;1.63;0.82;;;14.40;87.20;;;;;;5109014;28;20435;-41
2021/05/24 00:57:45;;;;;;;4.75;1.40;;;14.40;87.30;;;;;;5108120;28;20024;-40
2021/05/24 01:00:15;;;;;;;1.35;0.77;;;14.40;87.60;;;;;;5109117;28;20116;-40
2021/05/24 01:02:40;;;;;;;3.13;0.90;;;14.40;87.70;;;;;;5108297;28;20026;-40
2021/05/24 01:05:07;;;;;;;3.05;0.93;;;14.40;87.80;;;;;;5108860;28;20110;-39
2021/05/24 01:07:32;;;;;;;2.45;0.60;;;14.40;88.40;;;;;;5108284;28;20035;-40
2021/05/24 01:09:58;;;;;;;2.67;0.90;;;14.40;87.90;;;;;;5108940;28;20884;-39
2021/05/24 01:12:24;;;;;;;1.63;0.90;;;14.40;87.90;;;;;;5108218;28;20123;-40
2021/05/24 01:14:50;;;;;;;4.03;1.10;;;14.50;87.90;;;;;;5108430;28;20163;-39
2021/05/24 01:17:16;;;;;;;1.70;0.80;;;14.50;87.90;;;;;;5109044;28;20024;-39
2021/05/24 01:19:47;;;;;;;2.13;0.60;;;14.50;88.00;;;;;;5107213;28;20028;-42
2021/05/24 01:22:22;;;;;;;2.63;0.90;;;14.50;87.90;;;;;;5108677;28;20141;-40
2021/05/24 01:24:49;;;;;;;0.70;0.60;;;14.50;88.10;;;;;;5107859;28;20015;-40
2021/05/24 01:27:15;;;;;;;1.48;0.60;;;14.50;88.30;;;;;;5108343;28;20496;-40
2021/05/24 01:29:41;;;;;;;2.60;0.80;;;14.50;88.50;;;;;;5107768;28;20023;-40
2021/05/24 01:32:07;;;;;;;2.05;0.55;;;14.50;88.60;;;;;;5108017;28;20024;-40
2021/05/24 01:34:34;;;;;;;1.05;0.60;;;14.50;88.60;;;;;;5107909;28;20333;-40
2021/05/24 01:37:01;;;;;;;2.25;0.60;;;14.50;88.70;;;;;;5107396;28;20860;-40
2021/05/24 01:39:27;;;;;;;0.70;0.57;;;14.40;88.80;;;;;;5108092;28;20130;-39
2021/05/24 01:41:53;;;;;;;2.20;0.80;;;14.50;89.00;;;;;;5107915;28;20123;-42
2021/05/24 01:44:32;;;;;;;0.77;0.65;;;14.40;89.50;;;;;;5108102;28;20062;-40
2021/05/24 01:46:58;;;;;;;2.38;0.70;;;14.40;89.60;;;;;;5107525;28;20034;-40
2021/05/24 01:49:24;;;;;;;2.83;1.00;;;14.40;89.60;;;;;;5107849;28;20028;-40
2021/05/24 01:51:51;;;;;;;2.20;0.82;;;14.40;89.60;;;;;;5106358;28;20039;-41
2021/05/24 01:54:17;;;;;;;2.08;0.60;;;14.40;89.70;;;;;;5107406;28;20038;-41
2021/05/24 01:56:43;;;;;;;1.17;0.60;;;14.40;89.90;;;;;;5107036;28;20019;-40
2021/05/24 01:59:09;;;;;;;1.75;0.82;;;14.40;90.00;;;;;;5108042;28;20103;-40
2021/05/24 02:01:34;;;;;;;2.17;0.80;;;14.40;90.00;;;;;;5106291;28;20035;-40
2021/05/24 02:04:00;;;;;;;2.13;0.90;;;14.40;90.00;;;;;;5107585;28;20126;-42
2021/05/24 02:06:26;;;;;;;2.97;0.63;;;14.40;90.00;;;;;;5107808;28;20032;-35
2021/05/24 02:08:51;;;;;;;1.30;0.63;;;14.40;90.00;;;;;;5106255;28;20485;-40
2021/05/24 02:11:17;;;;;;;1.95;0.70;;;14.40;90.00;;;;;;5107532;28;20032;-41
2021/05/24 02:13:45;;;;;;;1.52;0.52;;;14.40;90.00;;;;;;5107253;28;20467;-40
2021/05/24 02:16:10;;;;;;;0.95;0.63;;;14.40;90.10;;;;;;5106742;28;20058;-40
2021/05/24 02:18:36;;;;;;;2.28;0.63;;;14.40;90.10;;;;;;5107083;28;20615;-41
2021/05/24 02:21:06;;;;;;;1.25;0.50;;;14.40;90.10;;;;;;5106739;28;20023;-39
2021/05/24 02:23:32;;;;;;;2.30;0.65;;;14.30;90.20;;;;;;5107479;28;20335;-39
2021/05/24 02:25:58;;;;;;;2.17;0.70;;;14.30;90.20;;;;;;5106846;28;20028;-40
2021/05/24 02:28:24;;;;;;;1.08;0.60;;;14.30;90.30;;;;;;5107415;28;20072;-39
2021/05/24 02:30:50;;;;;;;1.45;0.80;;;14.30;90.40;;;;;;5106286;28;20115;-39
2021/05/24 02:33:15;;;;;;;2.50;0.82;;;14.30;90.40;;;;;;5107046;28;20026;-42
2021/05/24 02:35:41;;;;;;;1.70;0.60;;;14.20;90.50;;;;;;5105926;28;20092;-40
2021/05/24 02:38:07;;;;;;;1.38;0.60;;;14.30;90.60;;;;;;5107104;28;20023;-40
2021/05/24 02:40:33;;;;;;;1.02;0.60;;;14.20;90.60;;;;;;5106217;28;20047;-40
2021/05/24 02:42:59;;;;;;;1.02;0.57;;;14.20;90.70;;;;;;5106335;28;20027;-41
2021/05/24 02:45:25;;;;;;;3.85;0.60;;;14.20;90.70;;;;;;5106528;28;20024;-40
2021/05/24 02:47:51;;;;;;;1.08;0.75;;;14.20;90.80;;;;;;5106529;28;20592;-41
2021/05/24 02:50:20;;;;;;;0.90;0.52;;;14.20;90.90;;;;;;5106126;28;20051;-39
2021/05/24 02:52:46;;;;;;;0.80;0.45;;;14.20;90.90;;;;;;5106220;28;20036;-48
2021/05/24 02:55:12;;;;;;;1.65;0.57;;;14.20;91.00;;;;;;5106516;28;20046;-39
2021/05/24 02:57:37;;;;;;;1.00;0.55;;;14.20;91.00;;;;;;5105958;28;20073;-36
2021/05/24 03:00:08;;;;;;;1.63;0.90;;;14.20;91.10;;;;;;5106417;28;20051;-42
2021/05/24 03:02:34;;;;;;;2.30;0.77;;;14.20;91.10;;;;;;5106223;28;20036;-40
2021/05/24 03:05:00;;;;;;;0.85;0.65;;;14.10;91.20;;;;;;5105732;28;20288;-42
2021/05/24 03:07:26;;;;;;;1.83;0.65;;;14.10;91.30;;;;;;5106495;28;20390;-40
2021/05/24 03:09:51;;;;;;;2.25;0.77;;;14.00;91.50;;;;;;5105875;28;20379;-41
2021/05/24 03:12:17;;;;;;;2.75;0.70;;;14.00;91.60;;;;;;5105766;28;20120;-40
2021/05/24 03:14:42;;;;;;;1.75;0.52;;;13.90;91.70;;;;;;5105895;28;20092;-39
2021/05/24 03:17:08;;;;;;;1.23;0.70;;;13.90;91.70;;;;;;5106038;28;20701;-40
2021/05/24 03:19:34;;;;;;;2.72;1.02;;;13.90;91.80;;;;;;5105837;28;20478;-39
2021/05/24 03:21:59;;;;;;;1.67;0.95;;;13.80;91.90;;;;;;5105802;28;20416;-39
2021/05/24 03:24:25;;;;;;;1.60;0.80;;;13.80;91.90;;;;;;5106221;28;20185;-40
2021/05/24 03:26:51;;;;;;;1.73;0.80;;;13.80;92.00;;;;;;5105657;28;20465;-38
2021/05/24 03:29:16;;;;;;;1.33;0.75;;;13.70;92.00;;;;;;5106239;28;20094;-40
2021/05/24 03:31:42;;;;;;;1.40;0.70;;;13.80;92.20;;;;;;5104907;28;20023;-40
2021/05/24 03:34:07;;;;;;;1.13;0.60;;;13.70;92.20;;;;;;5105971;28;20028;-40
2021/05/24 03:36:33;;;;;;;1.70;0.80;;;13.70;92.20;;;;;;5105763;28;20034;-41
2021/05/24 03:38:59;;;;;;;1.42;0.70;;;13.70;92.30;;;;;;5105283;28;20371;-40
2021/05/24 03:41:24;;;;;;;1.50;0.70;;;13.70;92.40;;;;;;5106330;28;20119;-39
2021/05/24 03:43:50;;;;;;;2.83;0.80;;;13.70;92.40;;;;;;5105203;28;20028;-40
2021/05/24 03:46:15;;;;;;;1.27;0.60;;;13.60;92.40;;;;;;5105367;28;20028;-40
2021/05/24 03:48:41;;;;;;;2.83;1.00;;;13.60;92.50;;;;;;5105313;28;20084;-42
2021/05/24 03:51:08;;;;;;;2.88;1.00;;;13.60;92.50;;;;;;5106238;28;20047;-40
2021/05/24 03:53:34;;;;;;;1.05;0.60;;;13.60;92.60;;;;;;5105348;28;20028;-40
2021/05/24 03:56:00;;;;;;;0.80;0.55;;;13.60;92.50;;;;;;5106284;28;20035;-40
2021/05/24 03:58:26;;;;;;;2.50;0.70;;;13.60;92.60;;;;;;5105711;28;20027;-40
2021/05/24 04:00:51;;;;;;;2.88;0.70;;;13.60;93.00;;;;;;5108012;28;20047;-38
2021/05/24 04:03:17;;;;;;;1.52;0.65;;;13.50;92.90;;;;;;5109820;28;20164;-40
2021/05/24 04:05:44;;;;;;;3.03;0.90;;;13.50;93.00;;;;;;5109883;28;20046;-40
2021/05/24 04:08:10;;;;;;;2.97;0.80;;;13.50;93.00;;;;;;5109469;28;20412;-39
2021/05/24 04:10:47;;;;;;;2.67;0.80;;;13.50;93.20;;;;;;5109713;28;20110;-37
2021/05/24 04:13:13;;;;;;;3.10;0.95;;;13.50;93.10;;;;;;5110223;27;20055;-40
2021/05/24 04:15:40;;;;;;;1.63;0.70;;;13.50;93.10;;;;;;5109005;28;20463;-39
2021/05/24 04:18:12;;;;;;;0.82;0.50;;;13.50;93.10;;;;;;5110214;28;20423;-40
2021/05/24 04:20:38;;;;;;;1.25;0.70;;;13.50;93.10;;;;;;5109649;28;20031;-40
2021/05/24 04:23:03;;;;;;;1.88;0.70;;;13.50;93.20;;;;;;5109020;28;20030;-39
2021/05/24 04:25:29;;;;;;;1.58;0.73;;;13.50;93.20;;;;;;5109838;28;20025;-39
2021/05/24 04:27:54;;;;;;;1.45;0.80;;;13.50;93.30;;;;;;5108744;28;20035;-40
2021/05/24 04:30:20;;;;;;;2.33;0.80;;;13.40;93.30;;;;;;5109150;28;20027;-41
2021/05/24 04:32:46;;;;;;;1.50;0.60;;;13.40;93.50;;;;;;5109523;28;20115;-41
2021/05/24 04:35:16;;;;;;;2.65;1.33;;;13.40;93.50;;;;;;5108489;28;20142;-41
2021/05/24 04:37:41;;;;;;;1.60;0.70;;;13.40;93.50;;;;;;5109102;28;20043;-41
2021/05/24 04:40:07;;;;;;;1.17;0.50;;;13.40;93.50;;;;;;5109481;28;20057;-40
2021/05/24 04:42:33;;;;;;;0.95;0.55;;;13.40;93.50;;;;;;5108687;28;20034;-40
2021/05/24 04:44:58;;;;;;;3.60;0.80;;;13.50;93.50;;;;;;5109099;28;20815;-40
2021/05/24 04:47:24;;;;;;;3.38;0.60;;;13.50;93.60;;;;;;5109661;28;20015;-40
2021/05/24 04:49:50;;;;;;;2.78;0.75;;;13.50;93.50;;;;;;5108245;28;20102;-40
2021/05/24 04:52:19;;;;;;;2.50;0.68;;;13.50;93.70;;;;;;5109192;28;20107;-40
2021/05/24 04:54:46;;;;;;;1.63;0.60;;;13.50;93.70;;;;;;5108709;28;20088;-40
2021/05/24 04:57:12;;;;;;;0.50;0.50;;;13.50;93.70;;;;;;5108946;28;20012;-40
2021/05/24 04:59:38;;;;;;;1.42;0.60;;;13.50;93.90;;;;;;5108095;28;20131;-41
2021/05/24 05:02:03;;;;;;;2.03;0.60;;;13.50;93.80;;;;;;5108385;28;20115;-40
2021/05/24 05:04:29;;;;;;;1.08;0.68;;;13.50;93.90;;;;;;5108766;28;20088;-42
2021/05/24 05:06:55;;;;;;;2.47;0.90;;;13.50;93.80;;;;;;5108680;28;20351;-40
2021/05/24 05:09:21;;;;;;;2.13;0.60;;;13.50;93.80;;;;;;5108935;28;20537;-41
2021/05/24 05:11:46;;;;;;;2.25;0.70;;;13.50;93.90;;;;;;5106482;28;20065;-43
2021/05/24 05:14:12;;;;;;;1.42;0.82;;;13.50;93.90;;;;;;5109310;28;20061;-41
2021/05/24 05:16:37;;;;;;;2.40;0.70;;;13.50;93.90;;;;;;5108848;28;20032;-40
2021/05/24 05:19:03;;;;;;;2.53;0.60;;;13.60;94.00;;;;;;5108440;28;20043;-40
2021/05/24 05:21:29;;;;;;;0.60;0.50;;;13.60;93.90;;;;;;5108458;28;20027;-40
2021/05/24 05:23:55;;;;;;;1.90;1.13;;;13.60;93.90;;;;;;5108130;28;20371;-39
2021/05/24 05:26:21;;;;;;;0.55;0.43;;;13.60;93.90;;;;;;5108521;28;20035;-42
2021/05/24 05:28:46;;;;;;;3.13;0.80;;;13.70;93.90;;;;;;5107776;28;20100;-38
2021/05/24 05:31:13;;;;;;;1.38;0.50;;;13.70;93.90;;;;;;5108462;28;20172;-40
2021/05/24 05:33:38;;;;;;;3.75;0.68;;;13.70;93.90;;;;;;5108051;27;20490;-40
2021/05/24 05:36:04;;;;;;;1.13;0.65;;;13.70;93.90;;;;;;5107848;28;20020;-40
2021/05/24 05:38:30;;;;;;;1.45;0.70;;;13.80;93.90;;;;;;5107659;28;20035;-37
2021/05/24 05:40:57;;;;;;;1.50;0.60;;;13.80;94.00;;;;;;5108282;28;20063;-40
2021/05/24 05:43:22;;;;;;;2.33;0.70;;;13.80;94.00;;;;;;5108474;28;20031;-40
2021/05/24 05:45:48;;;;;;;1.30;0.70;;;13.80;93.90;;;;;;5107657;28;20829;-40
2021/05/24 05:48:14;;;;;;;0.52;0.50;;;13.90;94.00;;;;;;5108216;27;20023;-42
2021/05/24 05:50:39;;;;;;;2.53;0.80;;;13.90;94.00;;;;;;5107949;28;20549;-38
2021/05/24 05:53:08;;;;;;;2.22;1.17;;;13.90;94.00;;;;;;5107304;28;20042;-37
2021/05/24 05:55:33;;;;;;;2.72;0.90;;;13.90;94.10;;;;;;5108065;28;20049;-40
2021/05/24 05:57:59;;;;;;;1.88;0.70;;;13.90;94.10;;;;;;5107555;28;20028;-41
2021/05/24 06:00:25;;;;;;;2.17;0.80;;;13.90;94.10;;;;;;5107082;28;20055;-38
2021/05/24 06:02:51;;;;;;;1.48;0.90;;;13.90;94.10;;;;;;5107667;27;20486;-36
2021/05/24 06:05:20;;;;;;;1.95;1.00;;;14.00;94.10;;;;;;5108057;28;20032;-41
2021/05/24 06:07:46;;;;;;;2.03;0.80;;;14.00;94.10;;;;;;5106902;28;20050;-41
2021/05/24 06:10:13;;;;;;;1.23;0.68;;;14.10;94.10;;;;;;5107936;28;20055;-39
2021/05/24 06:12:39;;;;;;;4.18;1.02;;;14.10;94.00;;;;;;5104647;28;20065;-40
2021/05/24 06:15:06;;;;;;;1.67;0.80;;;14.20;94.00;;;;;;5105692;28;20047;-38
2021/05/24 06:17:35;;;;;;;2.42;0.70;;;14.20;93.90;;;;;;5106357;28;20024;-40
2021/05/24 06:20:00;;;;;;;1.70;0.65;;;14.20;93.90;;;;;;5106683;28;20039;-40
2021/05/24 06:22:26;;;;;;;1.98;0.80;;;14.30;93.90;;;;;;5106894;28;20050;-39
2021/05/24 06:24:52;;;;;;;2.85;0.80;;;14.30;93.90;;;;;;5106628;28;20031;-41
2021/05/24 06:27:17;;;;;;;3.63;0.80;;;14.30;93.90;;;;;;5107300;28;20112;-40
2021/05/24 06:29:43;;;;;;;1.40;0.65;;;14.30;93.90;;;;;;5106972;28;20019;-38
2021/05/24 06:32:08;;;;;;;3.30;0.80;;;14.30;93.90;;;;;;5107237;28;20023;-40
2021/05/24 06:34:34;;;;;;;3.17;0.75;;;14.30;93.90;;;;;;5106767;28;20560;-40
2021/05/24 06:36:59;;;;;;;0.98;0.60;;;14.30;94.00;;;;;;5106984;28;20832;-40
2021/05/24 06:39:25;;;;;;;2.40;0.75;;;14.20;94.30;;;;;;5107042;28;20056;-42
2021/05/24 06:41:56;;;;;;;2.95;0.75;;;14.20;94.60;;;;;;5106587;28;20039;-37
2021/05/24 06:44:21;;;;;;;2.03;0.70;;;14.10;94.50;;;;;;5106925;28;20104;-40
2021/05/24 06:46:48;;;;;;;1.08;0.55;;;14.10;94.60;;;;;;5103919;28;20224;-40
2021/05/24 06:49:20;;;;;;;1.58;0.70;;;14.10;94.70;;;;;;5104559;28;20576;-42
2021/05/24 06:51:47;;;;;;;1.25;0.90;;;14.20;94.70;;;;;;5105520;28;20267;-41
2021/05/24 06:54:13;;;;;;;1.00;0.90;;;14.20;94.80;;;;;;5105973;28;20094;-40
2021/05/24 06:56:38;;;;;;;2.20;0.90;;;14.20;94.70;;;;;;5104957;28;20433;-41
2021/05/24 06:59:04;;;;;;;1.50;0.63;;;14.20;94.80;;;;;;5104990;28;20677;-41
2021/05/24 07:01:30;;;;;;;1.73;0.77;;;14.20;94.80;;;;;;5105265;28;20064;-42
2021/05/24 07:03:55;;;;;;;1.08;0.77;;;14.20;94.80;;;;;;5106591;28;20024;-42
2021/05/24 07:06:21;;;;;;;0.85;0.60;;;14.20;94.80;;;;;;5106730;28;20024;-41
2021/05/24 07:08:46;;;;;;;1.13;0.60;;;14.20;94.90;;;;;;5106092;28;20031;-39
2021/05/24 07:11:12;;;;;;;1.67;0.70;;;14.10;95.20;;;;;;5103051;28;20031;-46
2021/05/24 07:13:38;;;;;;;1.73;0.70;;;14.10;95.00;;;;;;5105975;28;20379;-40
2021/05/24 07:16:04;;;;;;;0.80;0.70;;;14.10;95.30;;;;;;5105761;28;20024;-39
2021/05/24 07:18:29;;;;;;;1.33;0.65;;;14.00;95.40;;;;;;5105255;28;20107;-40
2021/05/24 07:20:55;;;;;;;1.33;0.80;;;13.90;95.40;;;;;;5105490;28;20168;-40
2021/05/24 07:23:21;;;;;;;1.92;0.60;;;13.90;95.60;;;;;;5085387;28;20078;-40
2021/05/24 07:25:46;;;;;;;1.45;0.70;;;13.90;95.60;;;;;;5099160;28;20462;-40
2021/05/24 07:28:12;;;;;;;1.60;0.60;;;13.90;95.60;;;;;;5106623;28;20478;-40
2021/05/24 07:30:37;;;;;;;1.25;0.98;;;13.90;95.50;;;;;;5105711;28;20494;-40
2021/05/24 07:33:03;;;;;;;2.25;0.68;;;13.80;95.60;;;;;;5106172;28;20028;-40
2021/05/24 07:35:38;;;;;;;1.73;0.70;;;13.80;95.50;;;;;;5105456;28;20038;-42
2021/05/24 07:38:04;;;;;;;1.95;0.95;;;13.80;95.70;;;;;;5105973;28;20034;-40
2021/05/24 07:40:29;;;;;;;1.48;0.80;;;13.70;95.60;;;;;;5106163;28;20036;-40
2021/05/24 07:42:55;;;;;;;1.30;0.70;;;13.70;95.80;;;;;;5105820;28;20034;-40
2021/05/24 07:45:20;;;;;;;1.02;0.70;;;13.60;95.80;;;;;;5106009;28;20038;-40
2021/05/24 07:47:46;;;;;;;1.75;0.73;;;13.60;96.00;;;;;;5105481;28;20329;-40
2021/05/24 07:50:11;;;;;;;1.63;0.80;;;13.60;96.00;;;;;;5105895;28;20360;-39
2021/05/24 07:52:37;;;;;;;1.65;0.60;;;13.60;96.00;;;;;;5105226;28;20023;-41
2021/05/24 07:55:04;;;;;;;0.60;0.50;;;13.60;96.20;;;;;;5106204;28;20027;-39
2021/05/24 07:57:29;;;;;;;1.60;0.80;;;13.60;96.40;;;;;;5105552;28;20096;-35
2021/05/24 07:59:55;;;;;;;2.45;0.93;;;13.60;96.80;;;;;;5105397;28;20043;-39
2021/05/24 08:02:22;;;;;;;1.23;0.70;;;13.60;96.50;;;;;;5106000;28;20040;-40
2021/05/24 08:04:49;;;;;;;1.95;0.95;;;13.70;96.70;;;;;;5105659;28;20020;-40
2021/05/24 08:07:14;;;;;;;2.17;0.90;;;13.70;97.00;;;;;;5105635;28;20145;-40
2021/05/24 08:09:40;;;;;;;1.25;1.10;;;13.70;96.90;;;;;;5106072;28;20065;-37
2021/05/24 08:12:05;;;;;;;2.63;1.48;;;13.80;96.70;;;;;;5105652;28;20027;-40
2021/05/24 08:14:31;;;;;;;1.00;0.82;;;13.80;96.70;;;;;;5104998;28;20028;-40
2021/05/24 08:16:59;;;;;;;1.55;0.90;;;13.90;96.90;;;;;;5105605;28;20331;-41
2021/05/24 08:19:24;;;;;;;1.67;0.90;;;13.80;97.00;;;;;;5106115;28;20379;-40
2021/05/24 08:21:51;;;;;;;2.88;1.10;;;13.80;97.00;;;;;;5104620;28;20497;-40
2021/05/24 08:24:18;;;;;;;1.17;0.90;;;13.80;97.00;;;;;;5106346;28;20049;-42
2021/05/24 08:26:44;;;;;;;1.90;0.95;;;13.80;97.10;;;;;;5105237;28;20488;-41
2021/05/24 08:29:10;;;;;;;2.67;1.80;;;13.80;97.30;;;;;;5105471;28;20026;-41
2021/05/24 08:31:37;;;;;;;1.58;1.27;;;13.70;97.40;;;;;;5106514;28;20031;-41
2021/05/24 08:34:04;;;;;;;1.30;1.20;;;13.70;97.50;;;;;;5104794;28;20133;-39
2021/05/24 08:36:29;;;;;;;1.95;0.93;;;13.70;97.50;;;;;;5106205;28;20110;-41
2021/05/24 08:38:55;;;;;;;1.08;0.73;;;13.80;97.70;;;;;;5104905;28;20103;-40
2021/05/24 08:41:21;;;;;;;1.88;1.20;;;13.70;97.70;;;;;;5105522;28;20184;-40
2021/05/24 08:43:47;;;;;;;1.60;0.85;;;13.80;97.70;;;;;;5105396;28;20034;-40
2021/05/24 08:46:12;;;;;;;1.65;1.00;;;13.80;97.80;;;;;;5107877;28;20028;-39
2021/05/24 08:48:38;;;;;;;1.02;0.85;;;13.80;98.00;;;;;;5108561;28;20031;-39
2021/05/24 08:51:08;;;;;;;2.80;0.98;;;13.80;97.90;;;;;;5109277;28;20038;-41
2021/05/24 08:53:37;;;;;;;1.80;0.90;;;13.80;97.90;;;;;;5108842;28;20039;-40
2021/05/24 08:56:07;;;;;;;1.50;1.08;;;13.90;97.90;;;;;;5108488;28;20085;-40
2021/05/24 08:58:33;;;;;;;2.40;1.25;;;13.90;97.90;;;;;;5109103;28;20107;-39
2021/05/24 09:00:59;;;;;;;2.42;1.20;;;13.90;98.00;;;;;;5106772;28;20159;-40
2021/05/24 09:03:26;;;;;;;2.92;1.50;;;13.90;97.90;;;;;;5108256;28;20022;-40
2021/05/24 09:05:53;;;;;;;2.55;1.25;;;13.90;98.00;;;;;;5108781;28;20059;-41
2021/05/24 09:08:32;;;;;;;1.05;0.82;;;13.90;98.00;;;;;;5109174;28;20023;-40
2021/05/24 09:10:57;;;;;;;1.33;1.08;;;13.80;98.10;;;;;;5108369;28;20609;-41
2021/05/24 09:13:23;;;;;;;3.00;1.55;;;13.70;98.00;;;;;;5109163;28;20098;-45
2021/05/24 09:15:49;;;;;;;2.42;1.60;;;13.60;98.20;;;;;;5096794;28;20115;-40
2021/05/24 09:18:17;;;;;;;2.08;1.40;;;13.50;98.50;;;;;;5108260;28;20469;-43
2021/05/24 09:20:45;;;;;;;1.50;1.00;;;13.30;99.00;;;;;;5108668;28;20108;-40
2021/05/24 09:23:17;;;;;;;2.03;1.08;;;13.30;99.10;;;;;;5108473;28;20085;-40
2021/05/24 09:25:46;;;;;;;2.38;1.20;;;13.30;99.10;;;;;;5104463;28;20034;-39
2021/05/24 09:28:39;;;;;;;2.60;1.27;;;13.40;99.00;;;;;;5108479;28;20027;-40
2021/05/24 09:31:09;;;;;;;2.20;1.30;;;13.50;98.70;;;;;;5106220;28;20011;-40
2021/05/24 09:33:37;;;;;;;5.18;1.90;;;13.60;98.40;;;;;;5108591;28;20096;-37
2021/05/24 09:36:04;;;;;;;2.63;1.70;;;13.80;98.20;;;;;;5108296;28;20018;-40
2021/05/24 09:38:38;;;;;;;3.85;1.95;;;13.90;97.90;;;;;;5107682;28;20427;-39
2021/05/24 09:41:07;;;;;;;2.47;1.40;;;13.90;97.90;;;;;;5108719;28;20035;-40
2021/05/24 09:43:36;;;;;;;2.78;0.90;;;14.00;97.60;;;;;;5108315;28;20020;-41
2021/05/24 09:46:10;;;;;;;2.25;1.27;;;14.10;97.80;;;;;;5107467;28;20343;-37
2021/05/24 09:48:36;;;;;;;1.73;1.20;;;14.20;97.70;;;;;;5108440;28;20083;-39
2021/05/24 09:51:04;;;;;;;1.30;1.00;;;14.30;97.60;;;;;;5107948;28;20070;-41
2021/05/24 09:53:29;;;;;;;1.95;1.10;;;14.50;97.50;;;;;;5107831;28;20153;-40
2021/05/24 09:56:10;;;;;;;1.10;0.93;;;14.60;97.40;;;;;;5107821;28;20102;-40
2021/05/24 09:58:37;;;;;;;2.75;1.15;;;14.70;97.00;;;;;;5086973;28;20093;-39
2021/05/24 10:01:18;;;;;;;2.22;1.10;;;14.70;96.80;;;;;;5102079;28;20270;-40
2021/05/24 10:03:46;;;;;;;1.77;0.93;;;14.70;96.90;;;;;;5086713;28;20131;-41
2021/05/24 10:06:12;;;;;;;1.27;0.90;;;14.50;97.00;;;;;;5101738;28;20123;-40
2021/05/24 10:08:44;;;;;;;2.03;1.10;;;14.50;97.20;;;;;;5108005;28;20035;-42
2021/05/24 10:11:10;;;;;;;3.20;1.45;;;14.40;97.20;;;;;;5107907;28;20024;-40
2021/05/24 10:13:37;;;;;;;1.80;1.40;;;14.30;97.30;;;;;;5107440;28;20027;-39
2021/05/24 10:16:04;;;;;;;2.10;1.33;;;14.30;97.30;;;;;;5107187;28;20030;-40
2021/05/24 10:18:31;;;;;;;2.50;0.93;;;14.30;97.30;;;;;;5107824;28;20115;-41
2021/05/24 10:20:59;;;;;;;3.15;1.10;;;14.40;97.30;;;;;;5107112;28;20039;-40
2021/05/24 10:23:26;;;;;;;2.20;1.08;;;14.60;97.10;;;;;;5107640;28;20732;-42
2021/05/24 10:25:53;;;;;;;1.15;0.90;;;14.70;96.80;;;;;;5106899;28;20039;-39
2021/05/24 10:28:22;;;;;;;1.40;0.90;;;14.80;96.90;;;;;;5107201;28;20020;-40
2021/05/24 10:30:47;;;;;;;1.85;1.10;;;14.80;96.90;;;;;;5106685;28;20023;-39
2021/05/24 10:33:13;;;;;;;2.00;0.70;;;15.00;96.90;;;;;;5107514;28;20020;-40
2021/05/24 10:35:45;;;;;;;1.00;0.90;;;15.10;96.80;;;;;;5106638;28;20036;-39
2021/05/24 10:38:33;;;;;;;2.03;1.20;;;15.20;96.70;;;;;;5103648;28;20390;-39
2021/05/24 10:41:03;;;;;;;1.08;1.00;;;15.30;96.80;;;;;;5105958;28;20828;-41
2021/05/24 10:43:49;;;;;;;2.38;1.17;;;15.50;96.60;;;;;;5107067;28;20377;-40
2021/05/24 10:46:26;;;;;;;1.88;1.55;;;15.60;96.70;;;;;;5107112;28;20020;-37
2021/05/24 10:49:15;;;;;;;3.50;1.90;;;15.60;96.70;;;;;;5106141;28;20057;-41
2021/05/24 10:51:59;;;;;;;4.45;2.40;;;15.60;96.60;;;;;;5106232;28;20088;-41
2021/05/24 10:54:26;;;;;;;2.65;1.30;;;15.50;96.70;;;;;;5106694;28;20123;-40
2021/05/24 10:56:58;;;;;;;2.53;1.17;;;15.40;96.90;;;;;;5106013;28;20050;-40
2021/05/24 10:59:42;;;;;;;1.40;1.20;;;15.10;97.20;;;;;;5106861;28;20023;-39
2021/05/24 11:02:08;;;;;;;3.17;1.35;;;14.90;97.50;;;;;;5106387;28;20333;-40
2021/05/24 11:04:45;;;;;;;1.73;1.17;;;14.70;97.90;;;;;;5106125;28;20453;-40
2021/05/24 11:07:26;;;;;;;2.13;1.30;;;14.60;98.10;;;;;;5106653;28;20363;-41
2021/05/24 11:09:52;;;;;;;3.55;1.30;;;14.50;98.80;;;;;;5105978;28;20041;-40
2021/05/24 11:12:32;;;;;;;2.35;1.10;;;14.30;99.10;;;;;;5106901;28;20034;-43
2021/05/24 11:15:10;;;;;;;1.63;0.95;;;14.20;99.80;;;;;;5097443;28;20134;-39
2021/05/24 11:17:57;;;;;;;2.65;1.40;;;14.10;99.90;;;;;;5105944;28;20027;-39
2021/05/24 11:20:26;;;;;;;3.45;1.52;;;14.20;99.90;;;;;;5106696;28;20108;-39
2021/05/24 11:26:15;;;;;;;2.15;1.38;;;14.60;99.80;;;;;;5106307;28;20266;-39
2021/05/24 11:28:50;;;;;;;3.05;1.40;;;14.90;99.80;;;;;;5105319;28;20035;-40
2021/05/24 11:31:18;;;;;;;1.05;0.82;;;15.00;99.40;;;;;;5106020;28;20109;-40
2021/05/24 11:33:53;;;;;;;0.82;0.70;;;15.00;99.20;;;;;;5105914;28;20140;-41
2021/05/24 11:36:21;;;;;;;1.05;0.70;;;15.20;99.10;;;;;;5106718;28;20483;-41
2021/05/24 11:39:06;;;;;;;1.23;0.60;;;15.30;98.80;;;;;;5105393;28;20075;-38
2021/05/24 11:41:33;;;;;;;0.80;0.60;;;15.40;98.60;;;;;;5106126;28;20393;-41
2021/05/24 11:44:01;;;;;;;0.63;0.60;;;15.50;98.60;;;;;;5105820;28;20038;-41
2021/05/24 11:46:42;;;;;;;0.55;0.50;;;15.70;98.20;;;;;;5106910;28;20020;-42
2021/05/24 11:49:08;;;;;;;1.25;0.95;;;15.80;97.80;;;;;;5105937;28;20064;-39
2021/05/24 11:51:35;;;;;;;1.10;0.82;;;15.80;96.90;;;;;;5105520;28;20790;-39
2021/05/24 11:54:00;;;;;;;1.92;1.00;;;15.90;97.10;;;;;;5105440;28;20620;-43
2021/05/24 11:56:45;;;;;;;1.20;0.75;;;15.90;97.10;;;;;;5106348;28;20130;-37
2021/05/24 11:59:14;;;;;;;0.93;0.73;;;16.10;97.20;;;;;;5105737;28;20020;-40
2021/05/24 12:01:43;;;;;;;0.60;0.60;;;16.30;97.10;;;;;;5105837;28;20708;-37
2021/05/24 12:04:20;;;;;;;1.08;0.60;;;16.40;96.90;;;;;;5106163;28;20019;-39
2021/05/24 12:07:01;;;;;;;0.60;0.60;;;16.60;96.50;;;;;;5104781;28;20024;-40
2021/05/24 12:10:03;;;;;;;0.63;0.43;;;16.60;96.30;;;;;;5106265;28;20121;-41
2021/05/24 12:12:37;;;;;;;0.40;0.40;;;16.60;96.30;;;;;;5104296;28;20126;-39
2021/05/24 12:15:08;;;;;;;1.05;0.70;;;16.50;95.80;;;;;;5106241;28;20023;-45
2021/05/24 12:17:42;;;;;;;1.27;0.70;;;16.40;95.80;;;;;;5105813;28;20047;-42
2021/05/24 12:20:10;;;;;;;1.20;0.70;;;16.40;95.10;;;;;;5105918;28;20130;-39
2021/05/24 12:22:41;;;;;;;0.60;0.40;;;16.20;95.20;;;;;;5110228;28;20016;-39
2021/05/24 12:25:09;;;;;;;0.70;0.50;;;16.10;95.00;;;;;;5109741;28;20023;-40
2021/05/24 12:27:35;;;;;;;0.55;0.32;;;15.90;94.60;;;;;;5109455;28;20042;-41
2021/05/24 12:30:17;;;;;;;1.05;0.38;;;15.80;94.90;;;;;;5109038;28;20106;-40
2021/05/24 12:32:56;;;;;;;0.38;0.30;;;15.90;95.10;;;;;;5109516;28;20059;-40
2021/05/24 12:35:29;;;;;;;0.40;0.40;;;16.10;95.20;;;;;;5109608;28;20479;-40
2021/05/24 12:38:15;;;;;;;0.25;0.25;;;16.30;95.00;;;;;;5109868;28;20538;-41
2021/05/24 12:40:40;;;;;;;1.13;0.45;;;16.60;94.90;;;;;;5108931;28;20268;-42
2021/05/24 12:43:06;;;;;;;0.50;0.50;;;16.70;92.90;;;;;;5109820;28;20073;-41
2021/05/24 12:45:32;;;;;;;1.45;0.43;;;16.60;93.40;;;;;;5109259;28;20108;-40
2021/05/24 12:48:20;;;;;;;0.70;0.65;;;16.60;93.20;;;;;;5108854;28;20401;-39
2021/05/24 12:50:48;;;;;;;3.05;1.70;;;16.40;93.70;;;;;;5108913;28;20026;-40
2021/05/24 12:53:17;;;;;;;1.05;0.80;;;16.40;93.90;;;;;;5109830;28;20032;-40
2021/05/24 12:55:43;;;;;;;1.35;0.68;;;16.20;93.90;;;;;;5108382;28;20103;-40